LOZ weather

London-Corbin Airport/Magee Field
London, Kentucky, United States

Public forecast

Using degrees Fahrenheit for public forecast. Weather courtesy of forecast.io.

METAR (pilot weather report)

Retrieved 2019/09/23 18:08 UTC (38 minutes ago):

KLOZ 231808Z AUTO 00000KT 7SM -RA FEW005 OVC023 19/18 A3008 RMK AO2 P0000 T01940183

TAF (pilot weather forecast)

Retrieved 2019/09/23 18:54 UTC (0 seconds ago):

TAF KLOZ 231750Z 2318/2418 23008KT P6SM VCSH BKN025 OVC050 FM232200 26007KT P6SM VCSH SCT025 OVC035 FM240300 VRB04KT P6SM SCT035 FM240900 01002KT 4SM BR SKC FM241330 04005KT P6SM SKC